»·PEaware :: N520MP KSEA-KYKM

N520MP :: KSEA-KYKM

FLIGHT INFORMATION

Flight Status: Arrived
Operator: Privately registered:
United States
More flights under this callsign
Pilot: Manuel P. (9695)
Aircraft: BOMBARDIER BD-100 CHALLENGER 300
(CL30)
More flights by this aircraft type
Origin: KSEA Seattle-Tacoma Intl
United States
Destination: KYKM Yakima Air Term/Mcallister
United States
More flights between these airports :: More routes between these airports
Route: +SEA6 SEA V298 YKM
File this flight plan on PilotEdge
Remarks:
Altitude:
(Current/Filed)
15,000ft
Speed:
(Current/Filed)
400kts
Departed: 11-Nov-17 10:15 AM
Arrived: 11-Nov-17 10:45 AM
Distance/Time
Traveled:
89nm/0:30
Distance/Time
To Go:
Arrived

Flight Plot

Page will automatically refresh every two minutes.

Flight plan parsing failed; only flown route is shown


Map Options




Map Legend


Flown Route
Filed Route
Departure Airport
Arrival Airport
Navaid (VOR, NDB)
Fix

Horizontal Profiles

Position Reports

Time Latitude Longitude Heading Altitude Ground
Speed
11-Nov-17 09:51 47.435497 -122.304110 89 439ft 0kts
11-Nov-17 09:52 47.435497 -122.304110 89 439ft 0kts
11-Nov-17 09:53 47.435497 -122.304110 89 439ft 0kts
11-Nov-17 09:54 47.435497 -122.304110 89 439ft 0kts
11-Nov-17 09:55 47.435497 -122.304110 89 439ft 0kts
11-Nov-17 09:56 47.435497 -122.304110 89 439ft 0kts
11-Nov-17 09:57 47.435497 -122.304110 89 439ft 0kts
11-Nov-17 09:58 47.435497 -122.304110 89 439ft 0kts
11-Nov-17 09:59 47.435497 -122.304110 89 439ft 0kts
11-Nov-17 10:00 47.435497 -122.304110 89 439ft 0kts
11-Nov-17 10:01 47.435497 -122.304110 89 439ft 0kts
11-Nov-17 10:02 47.435497 -122.304110 89 439ft 0kts
11-Nov-17 10:03 47.435497 -122.304110 89 439ft 0kts
11-Nov-17 10:04 47.435497 -122.304110 89 439ft 0kts
11-Nov-17 10:05 47.435497 -122.304110 89 439ft 0kts
11-Nov-17 10:06 47.435497 -122.304110 89 439ft 0kts
11-Nov-17 10:07 47.435497 -122.304110 89 439ft 0kts
11-Nov-17 10:08 47.435497 -122.304110 89 439ft 0kts
11-Nov-17 10:09 47.435497 -122.304110 89 439ft 0kts
11-Nov-17 10:10 47.435497 -122.304110 89 439ft 0kts
11-Nov-17 10:11 47.435497 -122.304110 89 439ft 0kts
11-Nov-17 10:12 47.435497 -122.304110 89 439ft 0kts
11-Nov-17 10:13 47.435497 -122.304110 89 439ft 0kts
11-Nov-17 10:14 47.436052 -122.305165 278 440ft 8kts
11-Nov-17 10:15 47.439104 -122.306362 1 439ft 21kts
11-Nov-17 10:16 47.446832 -122.306281 1 439ft 27kts
11-Nov-17 10:17 47.452023 -122.306255 0 439ft 18kts
11-Nov-17 10:18 47.458208 -122.306166 0 440ft 24kts
11-Nov-17 10:19 47.463655 -122.306325 310 440ft 1kts
11-Nov-17 10:20 47.460067 -122.307774 180 440ft 92kts
11-Nov-17 10:21 47.408450 -122.309720 179 3103ft 233kts
11-Nov-17 10:22 47.343461 -122.310326 179 5814ft 242kts
11-Nov-17 10:23 47.270477 -122.310526 179 8090ft 274kts
11-Nov-17 10:24 47.195548 -122.311019 178 11095ft 272kts
11-Nov-17 10:25 47.167252 -122.221598 75 13224ft 316kts
11-Nov-17 10:26 47.191916 -122.079923 82 14438ft 384kts
11-Nov-17 10:27 47.210005 -121.922790 82 14990ft 392kts
11-Nov-17 10:28 47.227590 -121.768249 82 14998ft 379kts
11-Nov-17 10:29 47.244739 -121.615257 82 15027ft 392kts
11-Nov-17 10:30 47.246020 -121.454348 107 15023ft 390kts
11-Nov-17 10:31 47.216383 -121.307536 110 15019ft 378kts
11-Nov-17 10:32 47.184100 -121.159778 111 15019ft 384kts
11-Nov-17 10:33 47.150831 -121.011203 111 15021ft 392kts
11-Nov-17 10:34 47.094990 -120.883571 148 15105ft 376kts
11-Nov-17 10:35 47.007026 -120.802259 152 15099ft 373kts
11-Nov-17 10:36 46.919148 -120.727978 153 15083ft 355kts
11-Nov-17 10:37 46.839974 -120.662972 153 12594ft 356kts
11-Nov-17 10:38 46.760070 -120.597822 153 9868ft 291kts
11-Nov-17 10:39 46.693616 -120.546515 153 6817ft 266kts
11-Nov-17 10:40 46.641546 -120.491161 104 6105ft 219kts
11-Nov-17 10:41 46.626113 -120.408161 105 6101ft 211kts
11-Nov-17 10:42 46.609753 -120.321673 105 5961ft 240kts
11-Nov-17 10:43 46.590461 -120.225033 121 5941ft 249kts
11-Nov-17 10:44 46.526040 -120.214319 208 4911ft 246kts
11-Nov-17 10:45 46.493643 -120.286146 301 3945ft 219kts
11-Nov-17 10:46 46.519784 -120.357481 294 3578ft 175kts
11-Nov-17 10:47 46.535870 -120.414373 291 2795ft 141kts
11-Nov-17 10:48 46.549934 -120.469277 290 1987ft 143kts
11-Nov-17 10:49 46.563102 -120.521742 291 1260ft 143kts
11-Nov-17 10:50 46.570084 -120.549330 319 1105ft 12kts
11-Nov-17 10:51 46.570915 -120.548351 104 1106ft 5kts
11-Nov-17 10:52 46.570327 -120.546004 110 1106ft 11kts
11-Nov-17 10:53 46.569684 -120.542623 33 1106ft 4kts
11-Nov-17 10:54 46.569995 -120.541969 148 1105ft 0kts
11-Nov-17 10:55 46.569995 -120.541969 148 1105ft 0kts
11-Nov-17 10:56 46.569995 -120.541969 148 1105ft 0kts
11-Nov-17 10:57 46.569995 -120.541969 148 1105ft 0kts
11-Nov-17 10:58 46.569995 -120.541969 148 1105ft 0kts
11-Nov-17 10:59 46.569995 -120.541969 148 1105ft 0kts
11-Nov-17 11:00 46.569995 -120.541969 148 1105ft 0kts
11-Nov-17 11:01 46.569995 -120.541969 148 1105ft 0kts
11-Nov-17 11:02 46.569995 -120.541969 148 1105ft 0kts
11-Nov-17 11:03 46.569995 -120.541969 148 1105ft 0kts
11-Nov-17 11:04 46.569995 -120.541969 148 1105ft 0kts
11-Nov-17 11:05 46.569995 -120.541969 148 1105ft 0kts

Navigation Log

Ident Type
Flight plan parsing failed, navigation log unavailable